NEW MELONES RESERVOIR (NML)

Elevation: 1135' · STANISLAUS R basin · Operator: US Bureau of Reclamation

Provisional data, subject to change.
Query executed Tuesday at 21:26:26   clock

Select a sensor type for a plot of data.
Note: Reservoir Flows are daily averages.

Earlier

Date RES ELE    STORAGE    RES CHG    TOC STO    ABV TOC    OUTFLOW    INFLOW    EVAP    FNF    RIV REL    PPT INC    SPILL    DIS PWR   
 FEET   AF   AF   AF   AF   CFS   CFS   CFS   CFS   CFS   INCHES   CFS   CFS  
08/04/2014 880.32 613151 -4566 2420000 -1806849 2566 317 53 185 0 0.01 0 2566
08/05/2014 879.85 610663 -2488 2420000 -1809337 1579 376 51 283 0 0.00 0 1579
08/06/2014 879.41 608342 -2321 2420000 -1811658 1561 452 61 330 0 0.00 0 1561
08/07/2014 878.95 605918 -2424 2420000 -1814082 1511 354 65 275 0 0.00 0 1511
08/08/2014 878.44 603242 -2676 2420000 -1816758 1618 327 58 234 0 0.00 0 1618
08/09/2014 877.98 600829 -2413 2420000 -1819171 1487 334 64 209 0 0.00 0 1487
08/10/2014 877.30 597280 -3549 2420000 -1822720 2095 377 71 269 0 0.00 0 2095
08/11/2014 876.86 594988 -2292 2420000 -1825012 1478 383 61 265 0 0.00 0 1478
08/12/2014 876.43 592757 -2231 2420000 -1827243 1409 351 67 207 0 0.00 0 1409
08/13/2014 875.98 590422 -2335 2420000 -1829578 1466 359 70 237 0 0.00 0 1466
08/14/2014 875.55 588202 -2220 2420000 -1831798 1498 441 62 313 0 0.00 0 1498
08/15/2014 875.04 585569 -2633 2420000 -1834431 1632 380 75 257 0 0.00 0 1632
08/16/2014 874.52 582899 -2670 2420000 -1837101 1663 387 70 235 0 0.00 0 1663
08/17/2014 874.04 580434 -2465 2420000 -1839566 1549 372 66 250 0 0.00 0 1549
08/18/2014 873.46 577472 -2962 2420000 -1842528 1742 323 74 214 0 0.00 0 1742
08/19/2014 873.06 575429 -2043 2420000 -1844571 1273 312 69 155 0 0.00 0 1273
08/20/2014 872.56 572888 -2541 2420000 -1847112 1549 326 58 200 0 0.00 0 1549
08/21/2014 872.13 570704 -2184 2420000 -1849296 1494 450 57 313 0 0.00 0 1494
08/22/2014 871.77 568883 -1821 2420000 -1851117 1208 355 65 220 0 0.00 0 1208
08/23/2014 871.46 567317 -1566 2420000 -1852683 888 154 56 22 0 0.00 0 888
08/24/2014 871.28 566408 -909 2420000 -1853592 583 190 65 61 0 0.00 0 583
08/25/2014 870.95 564743 -1665 2420000 -1855257 869 92 62 -28 0 0.00 0 869
08/26/2014 870.57 562834 -1909 2420000 -1857166 927 20 55 -5677 0 0.00 0 927
08/27/2014 870.33 561629 -1205 2420000 -1858371 838 279 49 5700 0 0.00 0 838
08/28/2014 869.88 559372 -2257 2420000 -1860628 1413 337 62 200 0 0.00 0 1413
08/29/2014 869.51 557523 -1849 2420000 -1862477 1224 360 68 233 0 0.00 0 1224
08/30/2014 869.11 555525 -1998 2420000 -1864475 1323 368 52 232 0 0.00 0 1323
08/31/2014 868.70 553486 -2039 2420000 -1866514 1286 322 64 180 0 0.00 0 1286
09/01/2014 868.12 550604 -2882 2420000 -1869396 1842 448 59 321 0 0.00 0 1842
09/02/2014 -- -- -- -- -- -- -- -- -- -- -- -- --

Later | Latest

Warning! This data is preliminary and subject to revision.

Download Data Now Download Data Now | Show NML Map | Plot NML Data | 1 Month NML Data | Real-Time NML Data | NML Info